Terminal Aerodrome Forecast
Issued by NWS Memphis, TN

Home | Current Version | Previous Version | Text Only | Print | Product List | Glossary On
Versions: 1 2 3 4 5 6 7 8 9 10 11 12 13 14 15 16 17 18 19
813
FTUS44 KMEG 242327
TAFJBR
TAF
KJBR 242327Z 2500/2524 35005KT P6SM SCT250
     FM250600 01004KT P6SM BKN150
     FM251600 36006KT P6SM SCT120=

USA.gov is the U.S. government's official web portal to all federal, state and local government web resources and services.